sensor_id;sensor_type;location;lat;lon;timestamp;P1;durP1;ratioP1;P2;durP2;ratioP2
11303;SDS011;5707;49.588;12.148;2023-09-08T00:02:22;3.05;;;2.78;;
11303;SDS011;5707;49.588;12.148;2023-09-08T00:04:51;4.93;;;2.83;;
11303;SDS011;5707;49.588;12.148;2023-09-08T00:07:17;3.15;;;2.95;;
11303;SDS011;5707;49.588;12.148;2023-09-08T00:09:43;3.17;;;2.97;;
11303;SDS011;5707;49.588;12.148;2023-09-08T00:12:08;3.58;;;2.72;;
11303;SDS011;5707;49.588;12.148;2023-09-08T00:14:34;3.10;;;2.90;;
11303;SDS011;5707;49.588;12.148;2023-09-08T00:16:59;3.47;;;3.03;;
11303;SDS011;5707;49.588;12.148;2023-09-08T00:19:25;2.83;;;2.63;;
11303;SDS011;5707;49.588;12.148;2023-09-08T00:21:51;2.83;;;2.70;;
11303;SDS011;5707;49.588;12.148;2023-09-08T00:24:16;3.05;;;2.75;;
11303;SDS011;5707;49.588;12.148;2023-09-08T00:26:43;2.72;;;2.42;;
11303;SDS011;5707;49.588;12.148;2023-09-08T00:29:09;3.35;;;2.60;;
11303;SDS011;5707;49.588;12.148;2023-09-08T00:31:34;4.00;;;3.13;;
11303;SDS011;5707;49.588;12.148;2023-09-08T00:34:00;2.35;;;2.20;;
11303;SDS011;5707;49.588;12.148;2023-09-08T00:36:25;3.13;;;2.92;;
11303;SDS011;5707;49.588;12.148;2023-09-08T00:38:51;3.20;;;3.00;;
11303;SDS011;5707;49.588;12.148;2023-09-08T00:41:16;3.22;;;3.03;;
11303;SDS011;5707;49.588;12.148;2023-09-08T00:43:42;2.50;;;2.30;;
11303;SDS011;5707;49.588;12.148;2023-09-08T00:46:08;3.15;;;2.85;;
11303;SDS011;5707;49.588;12.148;2023-09-08T00:48:34;2.63;;;2.42;;
11303;SDS011;5707;49.588;12.148;2023-09-08T00:51:00;3.47;;;2.97;;
11303;SDS011;5707;49.588;12.148;2023-09-08T00:53:27;3.80;;;3.50;;
11303;SDS011;5707;49.588;12.148;2023-09-08T00:55:52;2.97;;;2.67;;
11303;SDS011;5707;49.588;12.148;2023-09-08T00:58:19;2.97;;;2.78;;
11303;SDS011;5707;49.588;12.148;2023-09-08T01:00:45;2.97;;;2.60;;
11303;SDS011;5707;49.588;12.148;2023-09-08T01:03:11;2.83;;;2.67;;
11303;SDS011;5707;49.588;12.148;2023-09-08T01:05:37;3.42;;;3.10;;
11303;SDS011;5707;49.588;12.148;2023-09-08T01:08:03;3.00;;;2.63;;
11303;SDS011;5707;49.588;12.148;2023-09-08T01:10:30;2.97;;;2.78;;
11303;SDS011;5707;49.588;12.148;2023-09-08T01:12:56;2.63;;;2.53;;
11303;SDS011;5707;49.588;12.148;2023-09-08T01:15:21;3.25;;;2.95;;
11303;SDS011;5707;49.588;12.148;2023-09-08T01:17:47;2.80;;;2.60;;
11303;SDS011;5707;49.588;12.148;2023-09-08T01:20:15;4.15;;;2.55;;
11303;SDS011;5707;49.588;12.148;2023-09-08T01:25:33;3.15;;;2.95;;
11303;SDS011;5707;49.588;12.148;2023-09-08T01:28:05;3.67;;;3.40;;
11303;SDS011;5707;49.588;12.148;2023-09-08T01:30:31;3.20;;;2.90;;
11303;SDS011;5707;49.588;12.148;2023-09-08T01:32:58;3.13;;;2.92;;
11303;SDS011;5707;49.588;12.148;2023-09-08T01:35:25;2.97;;;2.67;;
11303;SDS011;5707;49.588;12.148;2023-09-08T01:37:50;3.38;;;2.92;;
11303;SDS011;5707;49.588;12.148;2023-09-08T01:40:16;3.95;;;3.25;;
11303;SDS011;5707;49.588;12.148;2023-09-08T01:42:44;3.22;;;2.92;;
11303;SDS011;5707;49.588;12.148;2023-09-08T01:45:10;3.30;;;3.10;;
11303;SDS011;5707;49.588;12.148;2023-09-08T01:47:36;3.67;;;3.00;;
11303;SDS011;5707;49.588;12.148;2023-09-08T01:50:02;3.13;;;2.92;;
11303;SDS011;5707;49.588;12.148;2023-09-08T01:52:27;3.20;;;3.00;;
11303;SDS011;5707;49.588;12.148;2023-09-08T01:54:53;3.38;;;3.15;;
11303;SDS011;5707;49.588;12.148;2023-09-08T01:57:19;3.30;;;3.00;;
11303;SDS011;5707;49.588;12.148;2023-09-08T01:59:44;3.13;;;2.92;;
11303;SDS011;5707;49.588;12.148;2023-09-08T02:02:10;3.13;;;2.83;;
11303;SDS011;5707;49.588;12.148;2023-09-08T02:04:36;3.38;;;3.15;;
11303;SDS011;5707;49.588;12.148;2023-09-08T02:07:02;3.33;;;3.13;;
11303;SDS011;5707;49.588;12.148;2023-09-08T02:09:32;3.33;;;2.78;;
11303;SDS011;5707;49.588;12.148;2023-09-08T02:11:59;3.10;;;2.90;;
11303;SDS011;5707;49.588;12.148;2023-09-08T02:14:26;2.67;;;2.55;;
11303;SDS011;5707;49.588;12.148;2023-09-08T02:16:52;4.05;;;2.95;;
11303;SDS011;5707;49.588;12.148;2023-09-08T02:19:18;3.13;;;2.92;;
11303;SDS011;5707;49.588;12.148;2023-09-08T02:21:44;3.70;;;3.33;;
11303;SDS011;5707;49.588;12.148;2023-09-08T02:24:09;2.92;;;2.70;;
11303;SDS011;5707;49.588;12.148;2023-09-08T02:26:35;3.13;;;2.92;;
11303;SDS011;5707;49.588;12.148;2023-09-08T02:29:01;2.78;;;2.58;;
11303;SDS011;5707;49.588;12.148;2023-09-08T02:31:26;4.05;;;2.75;;
11303;SDS011;5707;49.588;12.148;2023-09-08T02:33:53;3.13;;;2.75;;
11303;SDS011;5707;49.588;12.148;2023-09-08T02:36:18;3.10;;;2.80;;
11303;SDS011;5707;49.588;12.148;2023-09-08T02:38:50;2.95;;;2.75;;
11303;SDS011;5707;49.588;12.148;2023-09-08T02:41:16;3.35;;;3.03;;
11303;SDS011;5707;49.588;12.148;2023-09-08T02:43:42;2.88;;;2.67;;
11303;SDS011;5707;49.588;12.148;2023-09-08T02:46:07;3.00;;;2.63;;
11303;SDS011;5707;49.588;12.148;2023-09-08T02:48:34;3.00;;;2.65;;
11303;SDS011;5707;49.588;12.148;2023-09-08T02:51:00;2.75;;;2.55;;
11303;SDS011;5707;49.588;12.148;2023-09-08T02:53:25;3.80;;;2.60;;
11303;SDS011;5707;49.588;12.148;2023-09-08T02:55:53;2.78;;;2.58;;
11303;SDS011;5707;49.588;12.148;2023-09-08T02:58:19;3.53;;;2.65;;
11303;SDS011;5707;49.588;12.148;2023-09-08T03:00:45;2.50;;;2.40;;
11303;SDS011;5707;49.588;12.148;2023-09-08T03:03:11;3.47;;;2.60;;
11303;SDS011;5707;49.588;12.148;2023-09-08T03:05:36;2.67;;;2.47;;
11303;SDS011;5707;49.588;12.148;2023-09-08T03:08:02;2.67;;;2.47;;
11303;SDS011;5707;49.588;12.148;2023-09-08T03:10:28;2.63;;;2.42;;
11303;SDS011;5707;49.588;12.148;2023-09-08T03:12:54;3.50;;;2.72;;
11303;SDS011;5707;49.588;12.148;2023-09-08T03:15:20;3.42;;;2.88;;
11303;SDS011;5707;49.588;12.148;2023-09-08T03:17:46;3.20;;;3.00;;
11303;SDS011;5707;49.588;12.148;2023-09-08T03:20:11;2.53;;;2.42;;
11303;SDS011;5707;49.588;12.148;2023-09-08T03:22:38;3.65;;;2.65;;
11303;SDS011;5707;49.588;12.148;2023-09-08T03:25:04;3.50;;;2.85;;
11303;SDS011;5707;49.588;12.148;2023-09-08T03:27:30;2.47;;;2.28;;
11303;SDS011;5707;49.588;12.148;2023-09-08T03:29:56;2.70;;;2.50;;
11303;SDS011;5707;49.588;12.148;2023-09-08T03:32:22;2.75;;;2.50;;
11303;SDS011;5707;49.588;12.148;2023-09-08T03:34:47;3.17;;;2.95;;
11303;SDS011;5707;49.588;12.148;2023-09-08T03:37:13;2.72;;;2.53;;
11303;SDS011;5707;49.588;12.148;2023-09-08T03:39:40;2.88;;;2.67;;
11303;SDS011;5707;49.588;12.148;2023-09-08T03:42:06;2.95;;;2.50;;
11303;SDS011;5707;49.588;12.148;2023-09-08T03:44:31;3.05;;;2.85;;
11303;SDS011;5707;49.588;12.148;2023-09-08T03:46:57;2.83;;;2.63;;
11303;SDS011;5707;49.588;12.148;2023-09-08T03:49:22;3.13;;;2.67;;
11303;SDS011;5707;49.588;12.148;2023-09-08T03:51:48;2.72;;;2.53;;
11303;SDS011;5707;49.588;12.148;2023-09-08T03:54:14;3.45;;;2.65;;
11303;SDS011;5707;49.588;12.148;2023-09-08T03:56:39;3.33;;;2.90;;
11303;SDS011;5707;49.588;12.148;2023-09-08T03:59:05;2.83;;;2.63;;
11303;SDS011;5707;49.588;12.148;2023-09-08T04:01:30;3.22;;;2.90;;
11303;SDS011;5707;49.588;12.148;2023-09-08T04:03:56;2.85;;;2.65;;
11303;SDS011;5707;49.588;12.148;2023-09-08T04:06:21;3.05;;;2.85;;
11303;SDS011;5707;49.588;12.148;2023-09-08T04:08:47;2.95;;;2.50;;
11303;SDS011;5707;49.588;12.148;2023-09-08T04:11:12;2.70;;;2.58;;
11303;SDS011;5707;49.588;12.148;2023-09-08T04:13:38;3.38;;;2.53;;
11303;SDS011;5707;49.588;12.148;2023-09-08T04:16:03;3.50;;;3.20;;
11303;SDS011;5707;49.588;12.148;2023-09-08T04:18:29;3.15;;;2.33;;
11303;SDS011;5707;49.588;12.148;2023-09-08T04:20:54;2.75;;;2.35;;
11303;SDS011;5707;49.588;12.148;2023-09-08T04:23:20;2.80;;;2.60;;
11303;SDS011;5707;49.588;12.148;2023-09-08T04:25:45;3.10;;;2.80;;
11303;SDS011;5707;49.588;12.148;2023-09-08T04:28:11;2.83;;;2.63;;
11303;SDS011;5707;49.588;12.148;2023-09-08T04:30:36;3.13;;;2.92;;
11303;SDS011;5707;49.588;12.148;2023-09-08T04:33:02;3.63;;;3.05;;
11303;SDS011;5707;49.588;12.148;2023-09-08T04:35:28;2.90;;;2.70;;
11303;SDS011;5707;49.588;12.148;2023-09-08T04:37:53;3.40;;;3.05;;
11303;SDS011;5707;49.588;12.148;2023-09-08T04:40:19;3.78;;;2.95;;
11303;SDS011;5707;49.588;12.148;2023-09-08T04:42:44;3.03;;;2.83;;
11303;SDS011;5707;49.588;12.148;2023-09-08T04:45:10;3.00;;;2.80;;
11303;SDS011;5707;49.588;12.148;2023-09-08T04:47:36;9.50;;;2.90;;
11303;SDS011;5707;49.588;12.148;2023-09-08T04:50:02;3.92;;;3.47;;
11303;SDS011;5707;49.588;12.148;2023-09-08T04:52:28;4.85;;;3.30;;
11303;SDS011;5707;49.588;12.148;2023-09-08T04:54:54;4.30;;;3.22;;
11303;SDS011;5707;49.588;12.148;2023-09-08T04:57:20;5.35;;;3.35;;
11303;SDS011;5707;49.588;12.148;2023-09-08T04:59:45;4.22;;;2.95;;
11303;SDS011;5707;49.588;12.148;2023-09-08T05:02:11;3.97;;;3.55;;
11303;SDS011;5707;49.588;12.148;2023-09-08T05:04:36;4.47;;;3.45;;
11303;SDS011;5707;49.588;12.148;2023-09-08T05:07:02;4.00;;;3.58;;
11303;SDS011;5707;49.588;12.148;2023-09-08T05:09:28;3.30;;;3.00;;
11303;SDS011;5707;49.588;12.148;2023-09-08T05:11:53;3.42;;;3.10;;
11303;SDS011;5707;49.588;12.148;2023-09-08T05:14:19;3.67;;;2.92;;
11303;SDS011;5707;49.588;12.148;2023-09-08T05:16:45;3.70;;;3.40;;
11303;SDS011;5707;49.588;12.148;2023-09-08T05:19:12;5.28;;;3.50;;
11303;SDS011;5707;49.588;12.148;2023-09-08T05:21:38;6.15;;;4.10;;
11303;SDS011;5707;49.588;12.148;2023-09-08T05:24:05;4.80;;;3.88;;
11303;SDS011;5707;49.588;12.148;2023-09-08T05:26:31;5.72;;;3.67;;
11303;SDS011;5707;49.588;12.148;2023-09-08T05:28:57;4.30;;;3.83;;
11303;SDS011;5707;49.588;12.148;2023-09-08T05:31:22;4.15;;;3.83;;
11303;SDS011;5707;49.588;12.148;2023-09-08T05:33:48;7.28;;;5.20;;
11303;SDS011;5707;49.588;12.148;2023-09-08T05:36:13;3.92;;;3.50;;
11303;SDS011;5707;49.588;12.148;2023-09-08T05:38:39;3.78;;;3.47;;
11303;SDS011;5707;49.588;12.148;2023-09-08T05:41:05;4.43;;;4.05;;
11303;SDS011;5707;49.588;12.148;2023-09-08T05:43:30;3.33;;;3.13;;
11303;SDS011;5707;49.588;12.148;2023-09-08T05:45:56;4.47;;;3.70;;
11303;SDS011;5707;49.588;12.148;2023-09-08T05:48:21;3.38;;;3.13;;
11303;SDS011;5707;49.588;12.148;2023-09-08T05:50:47;4.75;;;3.45;;
11303;SDS011;5707;49.588;12.148;2023-09-08T05:53:12;3.20;;;3.00;;
11303;SDS011;5707;49.588;12.148;2023-09-08T05:55:38;3.58;;;3.28;;
11303;SDS011;5707;49.588;12.148;2023-09-08T05:58:03;4.43;;;3.05;;
11303;SDS011;5707;49.588;12.148;2023-09-08T06:00:31;3.13;;;2.92;;
11303;SDS011;5707;49.588;12.148;2023-09-08T06:02:56;3.10;;;2.90;;
11303;SDS011;5707;49.588;12.148;2023-09-08T06:05:22;3.65;;;3.35;;
11303;SDS011;5707;49.588;12.148;2023-09-08T06:07:48;3.20;;;2.92;;
11303;SDS011;5707;49.588;12.148;2023-09-08T06:10:14;3.50;;;3.03;;
11303;SDS011;5707;49.588;12.148;2023-09-08T06:12:39;3.70;;;3.45;;
11303;SDS011;5707;49.588;12.148;2023-09-08T06:15:05;3.90;;;3.70;;
11303;SDS011;5707;49.588;12.148;2023-09-08T06:17:31;4.82;;;4.30;;
11303;SDS011;5707;49.588;12.148;2023-09-08T06:19:57;3.60;;;3.40;;
11303;SDS011;5707;49.588;12.148;2023-09-08T06:22:22;4.28;;;3.95;;
11303;SDS011;5707;49.588;12.148;2023-09-08T06:24:48;3.70;;;3.30;;
11303;SDS011;5707;49.588;12.148;2023-09-08T06:27:16;3.20;;;3.00;;
11303;SDS011;5707;49.588;12.148;2023-09-08T06:29:42;3.80;;;3.42;;
11303;SDS011;5707;49.588;12.148;2023-09-08T06:32:08;3.45;;;3.25;;
11303;SDS011;5707;49.588;12.148;2023-09-08T06:34:35;4.20;;;3.85;;
11303;SDS011;5707;49.588;12.148;2023-09-08T06:37:00;3.72;;;3.40;;
11303;SDS011;5707;49.588;12.148;2023-09-08T06:39:27;4.05;;;3.38;;
11303;SDS011;5707;49.588;12.148;2023-09-08T06:41:53;3.50;;;3.30;;
11303;SDS011;5707;49.588;12.148;2023-09-08T06:44:19;3.28;;;3.03;;
11303;SDS011;5707;49.588;12.148;2023-09-08T06:46:45;3.63;;;3.33;;
11303;SDS011;5707;49.588;12.148;2023-09-08T06:49:11;3.53;;;3.33;;
11303;SDS011;5707;49.588;12.148;2023-09-08T06:51:37;5.47;;;3.78;;
11303;SDS011;5707;49.588;12.148;2023-09-08T06:54:03;3.10;;;2.90;;
11303;SDS011;5707;49.588;12.148;2023-09-08T06:56:29;3.00;;;2.80;;
11303;SDS011;5707;49.588;12.148;2023-09-08T06:58:55;3.50;;;3.20;;
11303;SDS011;5707;49.588;12.148;2023-09-08T07:01:22;3.80;;;3.50;;
11303;SDS011;5707;49.588;12.148;2023-09-08T07:03:48;3.50;;;3.20;;
11303;SDS011;5707;49.588;12.148;2023-09-08T07:06:14;3.00;;;2.80;;
11303;SDS011;5707;49.588;12.148;2023-09-08T07:08:40;3.70;;;3.40;;
11303;SDS011;5707;49.588;12.148;2023-09-08T07:11:06;4.10;;;3.72;;
11303;SDS011;5707;49.588;12.148;2023-09-08T07:13:31;3.35;;;3.03;;
11303;SDS011;5707;49.588;12.148;2023-09-08T07:15:57;3.38;;;3.05;;
11303;SDS011;5707;49.588;12.148;2023-09-08T07:18:22;3.97;;;3.67;;
11303;SDS011;5707;49.588;12.148;2023-09-08T07:20:48;3.38;;;3.17;;
11303;SDS011;5707;49.588;12.148;2023-09-08T07:23:14;4.38;;;3.20;;
11303;SDS011;5707;49.588;12.148;2023-09-08T07:25:44;3.38;;;3.15;;
11303;SDS011;5707;49.588;12.148;2023-09-08T07:28:11;4.45;;;3.13;;
11303;SDS011;5707;49.588;12.148;2023-09-08T07:30:37;3.67;;;3.38;;
11303;SDS011;5707;49.588;12.148;2023-09-08T07:33:02;3.75;;;3.45;;
11303;SDS011;5707;49.588;12.148;2023-09-08T07:35:29;3.42;;;3.22;;
11303;SDS011;5707;49.588;12.148;2023-09-08T07:37:55;4.45;;;2.78;;
11303;SDS011;5707;49.588;12.148;2023-09-08T07:40:21;3.40;;;2.95;;
11303;SDS011;5707;49.588;12.148;2023-09-08T07:42:46;3.22;;;3.03;;
11303;SDS011;5707;49.588;12.148;2023-09-08T07:45:12;2.95;;;2.75;;
11303;SDS011;5707;49.588;12.148;2023-09-08T07:47:37;3.35;;;3.03;;
11303;SDS011;5707;49.588;12.148;2023-09-08T07:50:23;3.13;;;2.92;;
11303;SDS011;5707;49.588;12.148;2023-09-08T07:52:53;3.40;;;3.10;;
11303;SDS011;5707;49.588;12.148;2023-09-08T07:55:20;3.83;;;3.30;;
11303;SDS011;5707;49.588;12.148;2023-09-08T07:57:49;4.85;;;3.85;;
11303;SDS011;5707;49.588;12.148;2023-09-08T08:00:15;3.70;;;3.40;;
11303;SDS011;5707;49.588;12.148;2023-09-08T08:02:43;3.70;;;3.40;;
11303;SDS011;5707;49.588;12.148;2023-09-08T08:05:11;3.47;;;3.17;;
11303;SDS011;5707;49.588;12.148;2023-09-08T08:07:37;3.33;;;3.10;;
11303;SDS011;5707;49.588;12.148;2023-09-08T08:10:04;3.30;;;3.00;;
11303;SDS011;5707;49.588;12.148;2023-09-08T08:12:34;4.22;;;3.33;;
11303;SDS011;5707;49.588;12.148;2023-09-08T08:15:01;3.25;;;2.90;;
11303;SDS011;5707;49.588;12.148;2023-09-08T08:17:26;5.88;;;3.38;;
11303;SDS011;5707;49.588;12.148;2023-09-08T08:19:54;3.65;;;3.33;;
11303;SDS011;5707;49.588;12.148;2023-09-08T08:22:20;3.47;;;3.17;;
11303;SDS011;5707;49.588;12.148;2023-09-08T08:24:46;3.30;;;3.08;;
11303;SDS011;5707;49.588;12.148;2023-09-08T08:27:11;3.63;;;3.40;;
11303;SDS011;5707;49.588;12.148;2023-09-08T08:29:38;3.65;;;3.35;;
11303;SDS011;5707;49.588;12.148;2023-09-08T08:32:04;3.47;;;3.17;;
11303;SDS011;5707;49.588;12.148;2023-09-08T08:34:29;3.83;;;3.00;;
11303;SDS011;5707;49.588;12.148;2023-09-08T08:36:55;3.35;;;3.05;;
11303;SDS011;5707;49.588;12.148;2023-09-08T08:39:21;3.67;;;3.05;;
11303;SDS011;5707;49.588;12.148;2023-09-08T08:41:46;3.25;;;2.95;;
11303;SDS011;5707;49.588;12.148;2023-09-08T08:44:12;4.30;;;3.63;;
11303;SDS011;5707;49.588;12.148;2023-09-08T08:46:38;3.13;;;2.92;;
11303;SDS011;5707;49.588;12.148;2023-09-08T08:49:06;3.33;;;3.13;;
11303;SDS011;5707;49.588;12.148;2023-09-08T08:51:33;3.47;;;3.17;;
11303;SDS011;5707;49.588;12.148;2023-09-08T08:54:00;3.38;;;3.08;;
11303;SDS011;5707;49.588;12.148;2023-09-08T08:56:29;3.13;;;2.92;;
11303;SDS011;5707;49.588;12.148;2023-09-08T08:58:57;3.33;;;3.05;;
11303;SDS011;5707;49.588;12.148;2023-09-08T09:01:23;3.60;;;3.13;;
11303;SDS011;5707;49.588;12.148;2023-09-08T09:03:51;4.07;;;3.03;;
11303;SDS011;5707;49.588;12.148;2023-09-08T09:06:17;3.33;;;3.13;;
11303;SDS011;5707;49.588;12.148;2023-09-08T09:08:43;3.92;;;3.20;;
11303;SDS011;5707;49.588;12.148;2023-09-08T09:11:09;3.10;;;2.90;;
11303;SDS011;5707;49.588;12.148;2023-09-08T09:13:36;3.78;;;3.47;;
11303;SDS011;5707;49.588;12.148;2023-09-08T09:16:02;3.35;;;2.70;;
11303;SDS011;5707;49.588;12.148;2023-09-08T09:18:31;3.15;;;2.95;;
11303;SDS011;5707;49.588;12.148;2023-09-08T09:20:58;3.55;;;3.25;;
11303;SDS011;5707;49.588;12.148;2023-09-08T09:23:29;3.75;;;3.45;;
11303;SDS011;5707;49.588;12.148;2023-09-08T09:25:59;3.28;;;2.97;;
11303;SDS011;5707;49.588;12.148;2023-09-08T09:28:28;3.58;;;3.38;;
11303;SDS011;5707;49.588;12.148;2023-09-08T09:30:54;5.45;;;2.97;;
11303;SDS011;5707;49.588;12.148;2023-09-08T09:33:20;3.70;;;3.40;;
11303;SDS011;5707;49.588;12.148;2023-09-08T09:38:19;3.63;;;3.33;;
11303;SDS011;5707;49.588;12.148;2023-09-08T09:40:46;3.30;;;3.00;;
11303;SDS011;5707;49.588;12.148;2023-09-08T09:43:13;3.40;;;3.10;;
11303;SDS011;5707;49.588;12.148;2023-09-08T09:45:40;3.58;;;3.38;;
11303;SDS011;5707;49.588;12.148;2023-09-08T09:48:07;3.40;;;3.20;;
11303;SDS011;5707;49.588;12.148;2023-09-08T09:50:35;3.60;;;3.25;;
11303;SDS011;5707;49.588;12.148;2023-09-08T09:53:03;3.38;;;3.17;;
11303;SDS011;5707;49.588;12.148;2023-09-08T09:55:38;4.15;;;3.42;;
11303;SDS011;5707;49.588;12.148;2023-09-08T09:58:04;5.40;;;2.80;;
11303;SDS011;5707;49.588;12.148;2023-09-08T10:00:31;3.25;;;2.97;;
11303;SDS011;5707;49.588;12.148;2023-09-08T10:02:58;3.20;;;2.72;;
11303;SDS011;5707;49.588;12.148;2023-09-08T10:05:24;3.40;;;3.10;;
11303;SDS011;5707;49.588;12.148;2023-09-08T10:07:50;5.18;;;2.95;;
11303;SDS011;5707;49.588;12.148;2023-09-08T10:10:17;3.42;;;2.75;;
11303;SDS011;5707;49.588;12.148;2023-09-08T10:12:43;3.15;;;2.80;;
11303;SDS011;5707;49.588;12.148;2023-09-08T10:15:10;3.28;;;2.80;;
11303;SDS011;5707;49.588;12.148;2023-09-08T10:17:37;3.10;;;2.80;;
11303;SDS011;5707;49.588;12.148;2023-09-08T10:20:03;4.65;;;3.38;;
11303;SDS011;5707;49.588;12.148;2023-09-08T10:22:36;3.17;;;2.88;;
11303;SDS011;5707;49.588;12.148;2023-09-08T10:25:07;3.80;;;3.50;;
11303;SDS011;5707;49.588;12.148;2023-09-08T10:27:34;3.20;;;3.00;;
11303;SDS011;5707;49.588;12.148;2023-09-08T10:30:01;3.38;;;2.90;;
11303;SDS011;5707;49.588;12.148;2023-09-08T10:32:32;3.83;;;3.47;;
11303;SDS011;5707;49.588;12.148;2023-09-08T10:35:00;4.40;;;2.58;;
11303;SDS011;5707;49.588;12.148;2023-09-08T10:37:26;3.75;;;3.40;;
11303;SDS011;5707;49.588;12.148;2023-09-08T10:39:55;3.30;;;3.00;;
11303;SDS011;5707;49.588;12.148;2023-09-08T10:42:22;3.30;;;2.95;;
11303;SDS011;5707;49.588;12.148;2023-09-08T10:44:57;2.90;;;2.70;;
11303;SDS011;5707;49.588;12.148;2023-09-08T10:47:30;3.35;;;3.05;;
11303;SDS011;5707;49.588;12.148;2023-09-08T10:49:59;3.50;;;3.20;;
11303;SDS011;5707;49.588;12.148;2023-09-08T10:52:25;3.15;;;2.95;;
11303;SDS011;5707;49.588;12.148;2023-09-08T10:54:52;2.95;;;2.75;;
11303;SDS011;5707;49.588;12.148;2023-09-08T10:57:23;3.40;;;3.10;;
11303;SDS011;5707;49.588;12.148;2023-09-08T10:59:53;3.13;;;2.88;;
11303;SDS011;5707;49.588;12.148;2023-09-08T11:02:41;3.50;;;3.20;;
11303;SDS011;5707;49.588;12.148;2023-09-08T11:05:13;3.25;;;2.95;;
11303;SDS011;5707;49.588;12.148;2023-09-08T11:07:40;3.28;;;2.97;;
11303;SDS011;5707;49.588;12.148;2023-09-08T11:10:07;3.15;;;2.88;;
11303;SDS011;5707;49.588;12.148;2023-09-08T11:12:34;4.00;;;3.10;;
11303;SDS011;5707;49.588;12.148;2023-09-08T11:15:01;4.20;;;3.03;;
11303;SDS011;5707;49.588;12.148;2023-09-08T11:17:30;3.53;;;2.72;;
11303;SDS011;5707;49.588;12.148;2023-09-08T11:19:56;3.92;;;2.55;;
11303;SDS011;5707;49.588;12.148;2023-09-08T11:22:23;4.45;;;3.05;;
11303;SDS011;5707;49.588;12.148;2023-09-08T11:24:49;3.30;;;3.10;;
11303;SDS011;5707;49.588;12.148;2023-09-08T11:27:21;3.55;;;2.97;;
11303;SDS011;5707;49.588;12.148;2023-09-08T11:29:48;8.05;;;3.05;;
11303;SDS011;5707;49.588;12.148;2023-09-08T11:32:14;4.30;;;3.03;;
11303;SDS011;5707;49.588;12.148;2023-09-08T11:34:40;3.53;;;2.88;;
11303;SDS011;5707;49.588;12.148;2023-09-08T11:37:10;3.70;;;3.15;;
11303;SDS011;5707;49.588;12.148;2023-09-08T11:39:41;3.15;;;2.85;;
11303;SDS011;5707;49.588;12.148;2023-09-08T11:42:11;3.65;;;2.85;;
11303;SDS011;5707;49.588;12.148;2023-09-08T11:44:37;2.95;;;2.70;;
11303;SDS011;5707;49.588;12.148;2023-09-08T11:47:04;4.47;;;2.58;;
11303;SDS011;5707;49.588;12.148;2023-09-08T11:49:39;2.85;;;2.65;;
11303;SDS011;5707;49.588;12.148;2023-09-08T11:52:06;3.70;;;2.78;;
11303;SDS011;5707;49.588;12.148;2023-09-08T11:54:33;3.08;;;2.88;;
11303;SDS011;5707;49.588;12.148;2023-09-08T11:56:59;2.70;;;2.50;;
11303;SDS011;5707;49.588;12.148;2023-09-08T11:59:27;2.85;;;2.65;;
11303;SDS011;5707;49.588;12.148;2023-09-08T12:01:53;3.30;;;2.75;;
11303;SDS011;5707;49.588;12.148;2023-09-08T12:04:20;3.75;;;2.53;;
11303;SDS011;5707;49.588;12.148;2023-09-08T12:06:46;3.15;;;2.72;;
11303;SDS011;5707;49.588;12.148;2023-09-08T12:09:16;3.25;;;2.60;;
11303;SDS011;5707;49.588;12.148;2023-09-08T12:11:42;3.13;;;2.83;;
11303;SDS011;5707;49.588;12.148;2023-09-08T12:14:11;2.63;;;2.42;;
11303;SDS011;5707;49.588;12.148;2023-09-08T12:16:38;3.90;;;2.70;;
11303;SDS011;5707;49.588;12.148;2023-09-08T12:19:05;2.70;;;2.50;;
11303;SDS011;5707;49.588;12.148;2023-09-08T12:21:31;2.95;;;2.47;;
11303;SDS011;5707;49.588;12.148;2023-09-08T12:23:57;2.90;;;2.70;;
11303;SDS011;5707;49.588;12.148;2023-09-08T12:26:26;2.60;;;2.40;;
11303;SDS011;5707;49.588;12.148;2023-09-08T12:28:52;2.45;;;2.25;;
11303;SDS011;5707;49.588;12.148;2023-09-08T12:31:18;3.45;;;2.40;;
11303;SDS011;5707;49.588;12.148;2023-09-08T12:33:44;2.70;;;2.50;;
11303;SDS011;5707;49.588;12.148;2023-09-08T12:36:17;3.67;;;2.47;;
11303;SDS011;5707;49.588;12.148;2023-09-08T12:38:47;2.58;;;2.38;;
11303;SDS011;5707;49.588;12.148;2023-09-08T12:41:14;2.47;;;2.28;;
11303;SDS011;5707;49.588;12.148;2023-09-08T12:43:40;2.78;;;2.58;;
11303;SDS011;5707;49.588;12.148;2023-09-08T12:46:05;2.92;;;2.65;;
11303;SDS011;5707;49.588;12.148;2023-09-08T12:48:31;2.95;;;2.75;;
11303;SDS011;5707;49.588;12.148;2023-09-08T12:50:56;4.22;;;2.60;;
11303;SDS011;5707;49.588;12.148;2023-09-08T12:53:22;2.65;;;2.45;;
11303;SDS011;5707;49.588;12.148;2023-09-08T12:55:48;2.75;;;2.55;;
11303;SDS011;5707;49.588;12.148;2023-09-08T12:58:14;2.78;;;2.58;;
11303;SDS011;5707;49.588;12.148;2023-09-08T13:00:40;3.10;;;2.90;;
11303;SDS011;5707;49.588;12.148;2023-09-08T13:03:05;2.80;;;2.03;;
11303;SDS011;5707;49.588;12.148;2023-09-08T13:05:31;2.60;;;2.40;;
11303;SDS011;5707;49.588;12.148;2023-09-08T13:07:57;2.33;;;2.13;;
11303;SDS011;5707;49.588;12.148;2023-09-08T13:10:23;2.75;;;2.55;;
11303;SDS011;5707;49.588;12.148;2023-09-08T13:12:48;3.20;;;2.92;;
11303;SDS011;5707;49.588;12.148;2023-09-08T13:15:14;2.50;;;2.30;;
11303;SDS011;5707;49.588;12.148;2023-09-08T13:17:40;3.00;;;2.80;;
11303;SDS011;5707;49.588;12.148;2023-09-08T13:20:06;3.45;;;2.40;;
11303;SDS011;5707;49.588;12.148;2023-09-08T13:22:32;3.20;;;2.80;;
11303;SDS011;5707;49.588;12.148;2023-09-08T13:24:58;3.13;;;2.80;;
11303;SDS011;5707;49.588;12.148;2023-09-08T13:27:24;2.50;;;2.40;;
11303;SDS011;5707;49.588;12.148;2023-09-08T13:29:49;2.65;;;2.45;;
11303;SDS011;5707;49.588;12.148;2023-09-08T13:32:15;3.65;;;3.17;;
11303;SDS011;5707;49.588;12.148;2023-09-08T13:34:41;2.63;;;2.42;;
11303;SDS011;5707;49.588;12.148;2023-09-08T13:37:08;2.90;;;2.28;;
11303;SDS011;5707;49.588;12.148;2023-09-08T13:39:34;2.30;;;2.13;;
11303;SDS011;5707;49.588;12.148;2023-09-08T13:42:00;2.67;;;2.47;;
11303;SDS011;5707;49.588;12.148;2023-09-08T13:44:26;2.85;;;2.38;;
11303;SDS011;5707;49.588;12.148;2023-09-08T13:46:53;2.90;;;2.70;;
11303;SDS011;5707;49.588;12.148;2023-09-08T13:49:19;2.97;;;2.78;;
11303;SDS011;5707;49.588;12.148;2023-09-08T13:51:45;2.22;;;2.13;;
11303;SDS011;5707;49.588;12.148;2023-09-08T13:54:11;3.40;;;2.30;;
11303;SDS011;5707;49.588;12.148;2023-09-08T13:56:38;2.42;;;2.33;;
11303;SDS011;5707;49.588;12.148;2023-09-08T13:59:05;3.17;;;2.28;;
11303;SDS011;5707;49.588;12.148;2023-09-08T14:01:32;4.93;;;1.90;;
11303;SDS011;5707;49.588;12.148;2023-09-08T14:03:59;3.30;;;2.50;;
11303;SDS011;5707;49.588;12.148;2023-09-08T14:06:25;2.28;;;2.08;;
11303;SDS011;5707;49.588;12.148;2023-09-08T14:08:51;4.47;;;2.25;;
11303;SDS011;5707;49.588;12.148;2023-09-08T14:11:17;3.75;;;2.40;;
11303;SDS011;5707;49.588;12.148;2023-09-08T14:13:43;4.65;;;2.33;;
11303;SDS011;5707;49.588;12.148;2023-09-08T14:16:08;2.30;;;2.20;;
11303;SDS011;5707;49.588;12.148;2023-09-08T14:18:35;2.97;;;2.20;;
11303;SDS011;5707;49.588;12.148;2023-09-08T14:21:01;3.13;;;2.67;;
11303;SDS011;5707;49.588;12.148;2023-09-08T14:23:27;2.90;;;2.58;;
11303;SDS011;5707;49.588;12.148;2023-09-08T14:25:54;7.78;;;3.53;;
11303;SDS011;5707;49.588;12.148;2023-09-08T14:28:19;2.50;;;2.30;;
11303;SDS011;5707;49.588;12.148;2023-09-08T14:30:46;4.63;;;1.90;;
11303;SDS011;5707;49.588;12.148;2023-09-08T14:33:11;3.30;;;2.60;;
11303;SDS011;5707;49.588;12.148;2023-09-08T14:35:41;2.63;;;2.42;;
11303;SDS011;5707;49.588;12.148;2023-09-08T14:38:08;2.80;;;2.60;;
11303;SDS011;5707;49.588;12.148;2023-09-08T14:40:33;2.47;;;2.20;;
11303;SDS011;5707;49.588;12.148;2023-09-08T14:42:59;2.20;;;2.00;;
11303;SDS011;5707;49.588;12.148;2023-09-08T14:45:25;3.05;;;2.75;;
11303;SDS011;5707;49.588;12.148;2023-09-08T14:47:52;2.78;;;2.58;;
11303;SDS011;5707;49.588;12.148;2023-09-08T14:50:18;2.80;;;2.60;;